createdAt,value
2023-04-15T00:01:19.641Z,5.50
2023-04-15T00:03:48.189Z,1.33
2023-04-15T00:06:15.715Z,3.20
2023-04-15T00:08:43.768Z,3.53
2023-04-15T00:11:11.215Z,1.00
2023-04-15T00:13:39.780Z,1.65
2023-04-15T00:16:08.659Z,2.22
2023-04-15T00:18:36.671Z,1.88
2023-04-15T00:21:04.899Z,4.05
2023-04-15T00:23:32.495Z,0.98
2023-04-15T00:25:59.808Z,1.27
2023-04-15T00:28:27.815Z,3.35
2023-04-15T00:30:55.187Z,1.17
2023-04-15T00:33:22.515Z,2.13
2023-04-15T00:35:49.786Z,1.10
2023-04-15T00:38:18.220Z,4.85
2023-04-15T00:40:45.689Z,0.90
2023-04-15T00:43:13.091Z,2.03
2023-04-15T00:45:40.354Z,1.83
2023-04-15T00:48:07.792Z,0.93
2023-04-15T00:50:35.233Z,1.48
2023-04-15T00:53:02.870Z,1.92
2023-04-15T00:55:30.252Z,1.40
2023-04-15T00:57:57.899Z,2.10
2023-04-15T01:00:25.204Z,1.38
2023-04-15T01:02:53.275Z,1.08
2023-04-15T01:05:20.813Z,1.48
2023-04-15T01:07:48.937Z,5.43
2023-04-15T01:10:16.394Z,1.50
2023-04-15T01:12:44.897Z,6.32
2023-04-15T01:15:12.343Z,2.88
2023-04-15T01:17:40.146Z,4.63
2023-04-15T01:20:10.734Z,2.30
2023-04-15T01:22:38.826Z,3.28
2023-04-15T01:27:46.952Z,3.80
2023-04-15T01:30:14.422Z,3.45
2023-04-15T01:32:41.920Z,3.15
2023-04-15T01:35:21.718Z,6.40
2023-04-15T01:38:06.524Z,2.30
2023-04-15T01:40:45.209Z,1.40
2023-04-15T01:43:13.773Z,3.35
2023-04-15T01:45:44.206Z,2.33
2023-04-15T01:48:12.851Z,5.93
2023-04-15T01:50:41.420Z,2.15
2023-04-15T01:53:10.008Z,1.77
2023-04-15T01:55:38.573Z,1.60
2023-04-15T01:58:07.249Z,2.03
2023-04-15T02:00:35.841Z,2.85
2023-04-15T02:03:04.535Z,1.48
2023-04-15T02:05:34.133Z,1.90
2023-04-15T02:08:02.744Z,0.88
2023-04-15T02:10:31.439Z,1.48
2023-04-15T02:13:00.460Z,3.10
2023-04-15T02:15:30.789Z,0.85
2023-04-15T02:18:01.153Z,2.35
2023-04-15T02:20:31.047Z,1.50
2023-04-15T02:23:00.316Z,2.45
2023-04-15T02:25:28.776Z,1.85
2023-04-15T02:27:58.531Z,3.13
2023-04-15T02:30:27.525Z,5.60
2023-04-15T02:32:56.324Z,4.68
2023-04-15T02:35:27.031Z,5.32
2023-04-15T02:37:56.036Z,1.35
2023-04-15T02:40:24.684Z,6.15
2023-04-15T02:42:53.158Z,5.35
2023-04-15T02:45:24.432Z,8.70
2023-04-15T02:47:53.134Z,3.35
2023-04-15T02:50:23.876Z,2.17
2023-04-15T02:52:52.586Z,3.97
2023-04-15T02:55:21.912Z,3.38
2023-04-15T02:57:51.008Z,1.95
2023-04-15T03:00:19.588Z,2.20
2023-04-15T03:02:52.589Z,2.80
2023-04-15T03:05:21.384Z,2.22
2023-04-15T03:07:52.674Z,1.50
2023-04-15T03:10:22.383Z,1.48
2023-04-15T03:12:51.069Z,1.67
2023-04-15T03:15:22.708Z,2.67
2023-04-15T03:17:53.787Z,1.00
2023-04-15T03:20:22.339Z,0.90
2023-04-15T03:22:50.927Z,1.75
2023-04-15T03:25:21.860Z,2.58
2023-04-15T03:27:50.410Z,2.38
2023-04-15T03:30:19.414Z,3.05
2023-04-15T03:32:48.131Z,1.55
2023-04-15T03:35:17.378Z,1.42
2023-04-15T03:37:45.921Z,3.33
2023-04-15T03:40:14.418Z,3.20
2023-04-15T03:42:42.988Z,4.88
2023-04-15T03:45:11.957Z,1.55
2023-04-15T03:47:40.546Z,2.53
2023-04-15T03:50:09.407Z,2.00
2023-04-15T03:52:37.992Z,2.03
2023-04-15T03:55:06.965Z,3.05
2023-04-15T03:57:39.404Z,2.75
2023-04-15T04:00:10.954Z,2.10
2023-04-15T04:02:51.391Z,1.50
2023-04-15T04:05:20.026Z,3.08
2023-04-15T04:07:48.593Z,2.50
2023-04-15T04:10:17.291Z,1.42
2023-04-15T04:12:45.811Z,1.63
2023-04-15T04:15:14.386Z,2.05
2023-04-15T04:17:43.034Z,1.63
2023-04-15T04:20:12.649Z,3.88
2023-04-15T04:22:41.566Z,1.42
2023-04-15T04:25:10.603Z,11.45
2023-04-15T04:27:39.142Z,3.85
2023-04-15T04:30:08.482Z,2.33
2023-04-15T04:32:37.019Z,2.33
2023-04-15T04:35:05.785Z,2.20
2023-04-15T04:37:34.302Z,1.65
2023-04-15T04:40:02.807Z,2.72
2023-04-15T04:42:31.782Z,1.83
2023-04-15T04:45:00.282Z,1.33
2023-04-15T04:47:29.053Z,2.42
2023-04-15T04:49:57.615Z,1.40
2023-04-15T04:52:26.265Z,0.88
2023-04-15T04:54:54.728Z,1.73
2023-04-15T04:57:23.270Z,1.77
2023-04-15T04:59:51.906Z,2.25
2023-04-15T05:02:20.612Z,2.35
2023-04-15T05:04:50.588Z,3.00
2023-04-15T05:07:21.076Z,2.10
2023-04-15T05:09:49.590Z,2.65
2023-04-15T05:12:18.606Z,1.80
2023-04-15T05:14:47.071Z,1.10
2023-04-15T05:17:15.635Z,2.10
2023-04-15T05:19:44.173Z,1.73
2023-04-15T05:22:12.723Z,3.20
2023-04-15T05:24:41.319Z,1.38
2023-04-15T05:27:12.040Z,2.13
2023-04-15T05:29:40.968Z,2.35
2023-04-15T05:32:09.577Z,1.10
2023-04-15T05:34:38.175Z,1.52
2023-04-15T05:37:06.810Z,2.75
2023-04-15T05:39:35.255Z,2.10
2023-04-15T05:42:03.878Z,3.00
2023-04-15T05:44:33.007Z,1.77
2023-04-15T05:47:04.231Z,1.73
2023-04-15T05:49:32.954Z,1.50
2023-04-15T05:52:01.455Z,8.15
2023-04-15T05:54:30.049Z,1.73
2023-04-15T05:56:58.764Z,3.83
2023-04-15T05:59:28.712Z,2.55
2023-04-15T06:01:57.811Z,2.05
2023-04-15T06:04:26.468Z,1.60
2023-04-15T06:06:55.133Z,1.80
2023-04-15T06:09:23.625Z,2.72
2023-04-15T06:11:52.621Z,0.90
2023-04-15T06:14:21.266Z,5.45
2023-04-15T06:16:49.879Z,1.40
2023-04-15T06:19:18.736Z,1.63
2023-04-15T06:21:47.277Z,1.05
2023-04-15T06:24:15.876Z,2.63
2023-04-15T06:26:44.413Z,1.95
2023-04-15T06:29:12.896Z,0.65
2023-04-15T06:31:41.765Z,2.03
2023-04-15T06:34:11.460Z,0.73
2023-04-15T06:36:39.981Z,2.60
2023-04-15T06:39:09.098Z,1.90
2023-04-15T06:41:38.006Z,1.70
2023-04-15T06:44:06.827Z,1.42
2023-04-15T06:46:35.451Z,1.42
2023-04-15T06:49:04.086Z,1.30
2023-04-15T06:51:33.047Z,2.05
2023-04-15T06:54:02.634Z,0.90
2023-04-15T06:56:31.375Z,1.88
2023-04-15T06:59:00.130Z,2.78
2023-04-15T07:01:28.916Z,1.75
2023-04-15T07:03:57.546Z,2.00
2023-04-15T07:06:26.358Z,1.55
2023-04-15T07:08:56.018Z,2.15
2023-04-15T07:11:26.216Z,2.35
2023-04-15T07:13:54.860Z,2.53
2023-04-15T07:16:23.420Z,1.92
2023-04-15T07:18:51.977Z,2.00
2023-04-15T07:21:20.821Z,3.38
2023-04-15T07:23:49.358Z,3.40
2023-04-15T07:26:17.918Z,2.55
2023-04-15T07:28:47.672Z,1.10
2023-04-15T07:31:17.256Z,1.52
2023-04-15T07:33:45.920Z,1.88
2023-04-15T07:36:14.438Z,1.58
2023-04-15T07:38:43.455Z,2.53
2023-04-15T07:41:12.856Z,2.47
2023-04-15T07:43:41.449Z,4.25
2023-04-15T07:46:10.076Z,9.57
2023-04-15T07:48:38.674Z,4.82
2023-04-15T07:51:07.254Z,5.10
2023-04-15T07:53:35.964Z,2.38
2023-04-15T07:56:04.778Z,1.48
2023-04-15T07:58:33.273Z,1.77
2023-04-15T08:01:02.243Z,3.10
2023-04-15T08:03:31.030Z,6.03
2023-04-15T08:05:59.857Z,2.95
2023-04-15T08:08:28.429Z,1.88
2023-04-15T08:10:57.617Z,2.00
2023-04-15T08:13:26.756Z,2.20
2023-04-15T08:16:23.931Z,2.90
2023-04-15T08:18:54.229Z,6.00
2023-04-15T08:21:23.064Z,3.25
2023-04-15T08:23:52.986Z,1.35
2023-04-15T08:26:21.979Z,4.13
2023-04-15T08:28:51.563Z,1.95
2023-04-15T08:31:21.276Z,2.42
2023-04-15T08:33:52.459Z,1.30
2023-04-15T08:36:21.093Z,3.15
2023-04-15T08:38:49.666Z,2.85
2023-04-15T08:41:23.850Z,2.47
2023-04-15T08:44:03.017Z,1.38
2023-04-15T08:46:35.140Z,1.92
2023-04-15T08:49:05.490Z,1.98
2023-04-15T08:51:34.360Z,2.30
2023-04-15T08:54:03.168Z,2.80
2023-04-15T08:56:33.640Z,1.10
2023-04-15T08:59:02.858Z,1.92
2023-04-15T09:01:32.574Z,2.30
2023-04-15T09:04:03.692Z,4.78
2023-04-15T09:06:32.251Z,1.52
2023-04-15T09:09:01.545Z,2.47
2023-04-15T09:11:31.662Z,1.70
2023-04-15T09:14:00.275Z,1.00
2023-04-15T09:16:28.954Z,3.90
2023-04-15T09:18:57.822Z,3.65
2023-04-15T09:21:26.411Z,2.08
2023-04-15T09:23:58.488Z,3.90
2023-04-15T09:26:37.242Z,3.03
2023-04-15T09:29:07.891Z,3.28
2023-04-15T09:31:38.026Z,2.03
2023-04-15T09:34:07.425Z,1.73
2023-04-15T09:36:56.521Z,2.80
2023-04-15T09:39:25.145Z,2.97
2023-04-15T09:42:10.994Z,3.55
2023-04-15T09:44:39.959Z,3.75
2023-04-15T09:47:08.485Z,1.75
2023-04-15T09:49:37.330Z,1.30
2023-04-15T09:52:06.647Z,1.30
2023-04-15T09:54:37.054Z,2.33
2023-04-15T09:57:08.237Z,2.55
2023-04-15T09:59:36.788Z,1.30
2023-04-15T10:02:07.969Z,2.50
2023-04-15T10:04:39.870Z,2.67
2023-04-15T10:07:10.572Z,1.60
2023-04-15T10:09:40.074Z,1.85
2023-04-15T10:12:09.527Z,1.98
2023-04-15T10:14:39.094Z,2.50
2023-04-15T10:17:09.030Z,1.55
2023-04-15T10:19:38.392Z,1.58
2023-04-15T10:22:07.327Z,1.52
2023-04-15T10:24:36.926Z,0.88
2023-04-15T10:27:06.752Z,2.50
2023-04-15T10:29:35.422Z,1.35
2023-04-15T10:32:04.152Z,1.88
2023-04-15T10:34:33.084Z,1.42
2023-04-15T10:37:03.948Z,2.15
2023-04-15T10:39:40.050Z,3.53
2023-04-15T10:44:49.635Z,7.28
2023-04-15T10:47:21.892Z,1.48
2023-04-15T10:49:57.522Z,1.52
2023-04-15T10:52:27.973Z,2.40
2023-04-15T10:57:56.760Z,1.55
2023-04-15T11:00:26.522Z,0.98
2023-04-15T11:02:58.539Z,1.10
2023-04-15T11:08:20.251Z,1.20
2023-04-15T11:13:28.602Z,4.07
2023-04-15T11:15:59.169Z,2.40
2023-04-15T11:18:30.940Z,2.13
2023-04-15T11:21:06.027Z,1.50
2023-04-15T11:23:38.041Z,1.88
2023-04-15T11:26:10.172Z,2.17
2023-04-15T11:28:41.290Z,2.10
2023-04-15T11:31:12.650Z,1.95
2023-04-15T11:36:27.962Z,1.90
2023-04-15T11:38:57.938Z,1.73
2023-04-15T11:41:26.560Z,1.70
2023-04-15T11:43:55.107Z,3.55
2023-04-15T11:46:30.043Z,2.00
2023-04-15T11:48:58.657Z,0.95
2023-04-15T11:51:27.233Z,2.10
2023-04-15T11:53:55.082Z,2.25
2023-04-15T11:56:25.402Z,2.40
2023-04-15T11:58:59.693Z,1.85
2023-04-15T12:04:23.515Z,2.60
2023-04-15T12:06:52.859Z,1.90
2023-04-15T12:09:22.141Z,2.05
2023-04-15T12:11:52.099Z,1.50
2023-04-15T12:14:29.234Z,2.60
2023-04-15T12:17:00.721Z,1.77
2023-04-15T12:19:39.540Z,1.38
2023-04-15T12:22:11.239Z,1.00
2023-04-15T12:24:39.750Z,2.10
2023-04-15T12:27:09.032Z,2.55
2023-04-15T12:29:38.920Z,2.03
2023-04-15T12:32:09.657Z,2.30
2023-04-15T12:34:39.803Z,3.88
2023-04-15T12:37:11.357Z,1.73
2023-04-15T12:39:40.891Z,2.03
2023-04-15T12:42:09.217Z,2.15
2023-04-15T12:44:37.923Z,2.35
2023-04-15T12:47:05.812Z,1.58
2023-04-15T12:49:33.809Z,2.47
2023-04-15T12:52:02.770Z,1.45
2023-04-15T12:54:31.129Z,2.05
2023-04-15T12:56:59.514Z,1.27
2023-04-15T12:59:27.245Z,2.70
2023-04-15T13:01:55.034Z,1.50
2023-04-15T13:04:23.000Z,1.30
2023-04-15T13:06:50.799Z,2.20
2023-04-15T13:09:18.236Z,1.50
2023-04-15T13:11:46.605Z,3.20
2023-04-15T13:14:13.968Z,1.92
2023-04-15T13:16:41.828Z,2.53
2023-04-15T13:19:09.372Z,1.73
2023-04-15T13:21:37.063Z,2.38
2023-04-15T13:24:05.268Z,2.45
2023-04-15T13:29:15.385Z,2.67
2023-04-15T13:31:45.447Z,2.72
2023-04-15T13:34:12.852Z,1.35
2023-04-15T13:36:40.245Z,1.33
2023-04-15T13:39:07.587Z,1.60
2023-04-15T13:41:35.778Z,1.58
2023-04-15T13:44:03.479Z,2.10
2023-04-15T13:46:31.052Z,1.02
2023-04-15T13:48:58.556Z,1.45
2023-04-15T13:51:27.264Z,1.55
2023-04-15T13:53:54.782Z,2.78
2023-04-15T13:56:24.129Z,2.33
2023-04-15T13:58:53.258Z,1.38
2023-04-15T14:01:20.821Z,3.50
2023-04-15T14:03:48.406Z,1.50
2023-04-15T14:06:16.097Z,1.35
2023-04-15T14:08:43.738Z,1.77
2023-04-15T14:11:11.354Z,1.45
2023-04-15T14:13:38.870Z,1.70
2023-04-15T14:16:06.521Z,1.33
2023-04-15T14:18:34.080Z,1.58
2023-04-15T14:21:01.825Z,0.82
2023-04-15T14:23:29.329Z,3.75
2023-04-15T14:25:56.734Z,2.20
2023-04-15T14:28:25.200Z,2.08
2023-04-15T14:30:52.765Z,3.08
2023-04-15T14:33:20.223Z,1.15
2023-04-15T14:35:47.774Z,2.20
2023-04-15T14:38:15.143Z,1.35
2023-04-15T14:40:42.652Z,2.70
2023-04-15T14:43:10.220Z,2.00
2023-04-15T14:45:40.475Z,1.70
2023-04-15T14:48:10.405Z,1.38
2023-04-15T14:50:37.876Z,2.40
2023-04-15T14:53:05.320Z,1.30
2023-04-15T14:55:33.762Z,2.42
2023-04-15T14:58:02.722Z,2.03
2023-04-15T15:00:30.538Z,2.70
2023-04-15T15:02:58.150Z,15.70
2023-04-15T15:05:26.061Z,9.77
2023-04-15T15:07:53.632Z,5.38
2023-04-15T15:10:33.871Z,6.63
2023-04-15T15:13:11.395Z,8.85
2023-04-15T15:15:39.492Z,9.27
2023-04-15T15:18:07.352Z,6.03
2023-04-15T15:20:35.767Z,4.65
2023-04-15T15:23:03.305Z,3.10
2023-04-15T15:25:31.207Z,3.90
2023-04-15T15:27:58.736Z,7.20
2023-04-15T15:30:26.438Z,11.43
2023-04-15T15:32:53.852Z,6.47
2023-04-15T15:35:23.249Z,4.95
2023-04-15T15:37:50.838Z,4.43
2023-04-15T15:40:18.413Z,4.35
2023-04-15T15:42:47.542Z,4.45
2023-04-15T15:45:14.990Z,6.63
2023-04-15T15:47:43.176Z,3.03
2023-04-15T15:50:10.777Z,5.20
2023-04-15T15:52:38.278Z,3.28
2023-04-15T15:55:06.623Z,3.58
2023-04-15T15:57:34.045Z,5.50
2023-04-15T16:00:11.214Z,3.63
2023-04-15T16:03:06.695Z,5.20
2023-04-15T16:05:36.193Z,2.92
2023-04-15T16:08:04.118Z,4.05
2023-04-15T16:10:31.673Z,4.88
2023-04-15T16:12:59.214Z,2.83
2023-04-15T16:15:27.010Z,6.53
2023-04-15T16:17:54.491Z,4.38
2023-04-15T16:20:21.850Z,2.85
2023-04-15T16:22:49.275Z,6.82
2023-04-15T16:25:16.783Z,3.15
2023-04-15T16:27:57.648Z,5.32
2023-04-15T16:30:29.453Z,3.67
2023-04-15T16:32:57.494Z,6.32
2023-04-15T16:35:25.148Z,3.28
2023-04-15T16:37:52.575Z,3.67
2023-04-15T16:40:20.023Z,2.78
2023-04-15T16:42:47.484Z,3.55
2023-04-15T16:45:14.979Z,5.68
2023-04-15T16:47:42.602Z,5.28
2023-04-15T16:50:10.835Z,8.30
2023-04-15T16:52:38.372Z,10.85
2023-04-15T16:55:06.199Z,9.98
2023-04-15T16:57:58.757Z,16.60
2023-04-15T17:00:21.179Z,14.25
2023-04-15T17:02:49.070Z,13.68
2023-04-15T17:05:16.937Z,37.78
2023-04-15T17:07:44.316Z,37.00
2023-04-15T17:10:14.054Z,38.58
2023-04-15T17:12:41.922Z,57.63
2023-04-15T17:15:09.783Z,52.00
2023-04-15T17:17:49.403Z,49.40
2023-04-15T17:20:17.832Z,48.97
2023-04-15T17:22:48.387Z,43.35
2023-04-15T17:25:20.093Z,47.05
2023-04-15T17:27:53.074Z,42.70
2023-04-15T17:30:26.572Z,28.67
2023-04-15T17:33:58.852Z,28.95
2023-04-15T17:36:22.836Z,17.60
2023-04-15T17:39:10.128Z,11.55
2023-04-15T17:41:57.639Z,11.30
2023-04-15T17:44:36.980Z,4.80
2023-04-15T17:47:24.320Z,6.75
2023-04-15T17:50:11.627Z,6.78
2023-04-15T17:52:58.976Z,5.38
2023-04-15T17:55:49.577Z,6.20
2023-04-15T17:58:36.757Z,6.13
2023-04-15T18:01:24.125Z,4.32
2023-04-15T18:04:12.377Z,4.85
2023-04-15T18:06:59.824Z,5.03
2023-04-15T18:09:47.709Z,6.40
2023-04-15T18:12:34.917Z,3.35
2023-04-15T18:15:22.172Z,6.65
2023-04-15T18:18:09.436Z,4.32
2023-04-15T18:20:47.741Z,6.60
2023-04-15T18:23:15.253Z,5.63
2023-04-15T18:25:43.853Z,6.20
2023-04-15T18:28:11.294Z,5.78
2023-04-15T18:30:38.717Z,5.28
2023-04-15T18:33:06.657Z,8.35
2023-04-15T18:35:35.404Z,4.20
2023-04-15T18:38:03.220Z,6.50
2023-04-15T18:40:30.629Z,5.57
2023-04-15T18:42:58.011Z,5.03
2023-04-15T18:45:25.657Z,2.85
2023-04-15T18:47:53.122Z,3.38
2023-04-15T18:50:20.723Z,3.08
2023-04-15T18:52:48.063Z,3.35
2023-04-15T18:55:18.516Z,2.72
2023-04-15T18:57:48.609Z,2.22
2023-04-15T19:00:17.390Z,2.05
2023-04-15T19:02:44.943Z,1.77
2023-04-15T19:05:12.519Z,4.65
2023-04-15T19:07:41.383Z,2.72
2023-04-15T19:10:09.126Z,2.78
2023-04-15T19:12:37.730Z,3.15
2023-04-15T19:15:07.214Z,1.58
2023-04-15T19:17:34.762Z,3.67
2023-04-15T19:20:02.310Z,4.00
2023-04-15T19:22:31.236Z,2.42
2023-04-15T19:24:59.137Z,3.13
2023-04-15T19:27:27.456Z,4.20
2023-04-15T19:29:54.963Z,0.85
2023-04-15T19:32:22.390Z,3.97
2023-04-15T19:34:49.791Z,1.95
2023-04-15T19:37:17.616Z,1.58
2023-04-15T19:39:45.029Z,2.80
2023-04-15T19:42:13.076Z,2.70
2023-04-15T19:44:43.046Z,2.47
2023-04-15T19:47:11.314Z,1.95
2023-04-15T19:49:38.884Z,2.72
2023-04-15T19:52:06.402Z,1.83
2023-04-15T19:54:33.781Z,2.13
2023-04-15T19:57:02.333Z,2.17
2023-04-15T19:59:29.737Z,2.03
2023-04-15T20:01:57.514Z,1.67
2023-04-15T20:04:25.188Z,2.47
2023-04-15T20:06:52.582Z,2.13
2023-04-15T20:09:20.010Z,1.75
2023-04-15T20:12:10.065Z,1.52
2023-04-15T20:14:34.903Z,2.70
2023-04-15T20:17:02.530Z,3.40
2023-04-15T20:19:29.922Z,1.15
2023-04-15T20:21:57.285Z,3.08
2023-04-15T20:24:24.680Z,1.95
2023-04-15T20:26:52.114Z,1.85
2023-04-15T20:29:19.609Z,2.92
2023-04-15T20:31:47.457Z,1.83
2023-04-15T20:34:14.875Z,5.07
2023-04-15T20:36:42.489Z,3.45
2023-04-15T20:39:09.959Z,2.33
2023-04-15T20:41:37.328Z,5.05
2023-04-15T20:44:04.781Z,4.05
2023-04-15T20:46:32.371Z,3.63
2023-04-15T20:49:01.239Z,3.42
2023-04-15T20:51:31.537Z,2.88
2023-04-15T20:53:58.889Z,2.83
2023-04-15T20:56:26.280Z,3.50
2023-04-15T20:58:53.586Z,3.95
2023-04-15T21:01:21.148Z,4.32
2023-04-15T21:03:48.801Z,3.17
2023-04-15T21:06:16.274Z,3.38
2023-04-15T21:08:44.256Z,3.17
2023-04-15T21:11:11.726Z,4.10
2023-04-15T21:13:39.221Z,4.07
2023-04-15T21:16:06.656Z,3.50
2023-04-15T21:18:34.105Z,5.10
2023-04-15T21:21:02.815Z,2.22
2023-04-15T21:23:30.666Z,5.15
2023-04-15T21:25:59.188Z,4.22
2023-04-15T21:28:28.226Z,3.53
2023-04-15T21:30:56.840Z,4.65
2023-04-15T21:33:24.505Z,4.00
2023-04-15T21:35:53.327Z,8.88
2023-04-15T21:38:23.164Z,3.45
2023-04-15T21:40:51.523Z,3.15
2023-04-15T21:43:19.404Z,2.33
2023-04-15T21:46:21.285Z,3.80
2023-04-15T21:48:34.148Z,6.40
2023-04-15T21:51:02.131Z,5.82
2023-04-15T21:53:29.464Z,6.28
2023-04-15T21:55:56.928Z,3.58
2023-04-15T21:58:24.274Z,5.32
2023-04-15T22:00:57.673Z,3.60
2023-04-15T22:03:25.198Z,4.57
2023-04-15T22:05:52.862Z,5.55
2023-04-15T22:08:20.252Z,6.10
2023-04-15T22:10:47.692Z,7.80
2023-04-15T22:13:15.023Z,4.00
2023-04-15T22:15:42.432Z,6.03
2023-04-15T22:18:09.747Z,4.68
2023-04-15T22:20:37.098Z,6.00
2023-04-15T22:23:07.962Z,6.03
2023-04-15T22:25:37.366Z,6.15
2023-04-15T22:28:07.662Z,9.40
2023-04-15T22:30:38.736Z,3.22
2023-04-15T22:33:06.889Z,2.15
2023-04-15T22:35:34.949Z,4.05
2023-04-15T22:38:02.349Z,3.78
2023-04-15T22:40:30.100Z,4.43
2023-04-15T22:42:57.450Z,3.63
2023-04-15T22:45:24.867Z,3.42
2023-04-15T22:47:52.265Z,3.25
2023-04-15T22:50:19.794Z,3.42
2023-04-15T22:52:48.494Z,4.07
2023-04-15T22:55:15.838Z,3.75
2023-04-15T22:57:43.369Z,4.35
2023-04-15T23:00:11.077Z,4.03
2023-04-15T23:02:38.521Z,4.45
2023-04-15T23:05:12.889Z,2.58
2023-04-15T23:07:41.005Z,4.55
2023-04-15T23:10:09.018Z,3.88
2023-04-15T23:12:36.382Z,3.33
2023-04-15T23:15:04.116Z,5.93
2023-04-15T23:17:35.244Z,3.55
2023-04-15T23:20:03.264Z,3.63
2023-04-15T23:22:30.978Z,6.30
2023-04-15T23:24:58.295Z,9.18
2023-04-15T23:27:25.661Z,4.43
2023-04-15T23:29:53.063Z,5.10
2023-04-15T23:32:21.050Z,7.70
2023-04-15T23:34:48.463Z,2.83
2023-04-15T23:37:18.575Z,2.88
2023-04-15T23:39:45.837Z,2.40
2023-04-15T23:42:13.194Z,6.00
2023-04-15T23:44:40.539Z,2.05
2023-04-15T23:47:07.958Z,1.70
2023-04-15T23:49:36.832Z,5.28
2023-04-15T23:52:04.384Z,2.58
2023-04-15T23:54:31.714Z,4.68
2023-04-15T23:56:59.026Z,5.03
2023-04-15T23:59:26.349Z,2.95
